createdAt,value
2018-11-03T00:01:03.715Z,5.07
2018-11-03T00:03:32.092Z,5.80
2018-11-03T00:06:00.723Z,5.40
2018-11-03T00:08:29.412Z,4.77
2018-11-03T00:10:58.123Z,3.77
2018-11-03T00:13:26.970Z,4.60
2018-11-03T00:15:55.375Z,4.07
2018-11-03T00:18:24.083Z,4.37
2018-11-03T00:20:52.446Z,4.53
2018-11-03T00:23:20.854Z,4.60
2018-11-03T00:25:49.256Z,4.20
2018-11-03T00:28:17.626Z,3.67
2018-11-03T00:30:46.023Z,5.17
2018-11-03T00:33:14.713Z,4.10
2018-11-03T00:35:43.133Z,3.10
2018-11-03T00:38:11.526Z,3.13
2018-11-03T00:40:41.638Z,4.10
2018-11-03T00:43:10.043Z,4.30
2018-11-03T00:45:38.678Z,3.67
2018-11-03T00:48:07.498Z,4.70
2018-11-03T00:50:36.512Z,3.37
2018-11-03T00:53:05.512Z,3.70
2018-11-03T00:55:33.862Z,3.90
2018-11-03T00:58:02.298Z,2.90
2018-11-03T01:00:30.938Z,2.57
2018-11-03T01:02:59.863Z,2.80
2018-11-03T01:05:28.759Z,3.83
2018-11-03T01:07:57.147Z,2.30
2018-11-03T01:10:25.834Z,4.43
2018-11-03T01:12:54.214Z,3.30
2018-11-03T01:15:22.595Z,3.40
2018-11-03T01:17:51.256Z,4.47
2018-11-03T01:20:20.504Z,3.53
2018-11-03T01:22:49.547Z,4.07
2018-11-03T01:25:17.939Z,4.97
2018-11-03T01:27:46.646Z,4.60
2018-11-03T01:30:16.446Z,6.07
2018-11-03T01:32:45.851Z,5.17
2018-11-03T01:35:14.510Z,3.87
2018-11-03T01:37:43.866Z,5.20
2018-11-03T01:40:13.348Z,4.00
2018-11-03T01:42:42.114Z,4.50
2018-11-03T01:45:11.120Z,3.30
2018-11-03T01:47:39.792Z,4.17
2018-11-03T01:50:11.005Z,3.13
2018-11-03T01:52:40.451Z,4.00
2018-11-03T01:55:09.057Z,3.60
2018-11-03T01:57:38.743Z,3.63
2018-11-03T02:00:08.177Z,3.40
2018-11-03T02:02:36.555Z,4.10
2018-11-03T02:05:05.622Z,3.87
2018-11-03T02:07:34.516Z,4.90
2018-11-03T02:10:03.225Z,4.03
2018-11-03T02:12:31.606Z,3.30
2018-11-03T02:15:00.651Z,4.60
2018-11-03T02:17:29.343Z,4.43
2018-11-03T02:19:57.764Z,4.87
2018-11-03T02:22:26.239Z,3.70
2018-11-03T02:24:54.703Z,4.90
2018-11-03T02:27:23.115Z,3.30
2018-11-03T02:29:51.506Z,2.80
2018-11-03T02:32:20.256Z,3.43
2018-11-03T02:34:48.995Z,3.87
2018-11-03T02:37:17.639Z,3.03
2018-11-03T02:39:46.284Z,4.10
2018-11-03T02:42:14.987Z,3.23
2018-11-03T02:44:43.951Z,3.93
2018-11-03T02:47:12.343Z,4.83
2018-11-03T02:49:40.730Z,3.70
2018-11-03T02:52:09.424Z,4.03
2018-11-03T02:54:37.834Z,3.87
2018-11-03T02:57:06.578Z,4.20
2018-11-03T02:59:35.023Z,3.90
2018-11-03T03:02:04.385Z,3.30
2018-11-03T03:04:33.347Z,4.83
2018-11-03T03:07:01.765Z,3.30
2018-11-03T03:09:30.411Z,3.00
2018-11-03T03:11:58.799Z,2.90
2018-11-03T03:14:29.640Z,4.10
2018-11-03T03:16:58.098Z,5.33
2018-11-03T03:19:26.590Z,3.30
2018-11-03T03:21:55.268Z,3.37
2018-11-03T03:24:23.695Z,4.10
2018-11-03T03:26:52.707Z,2.93
2018-11-03T03:29:21.141Z,3.20
2018-11-03T03:31:49.727Z,5.13
2018-11-03T03:34:18.379Z,2.70
2018-11-03T03:36:46.783Z,3.30
2018-11-03T03:39:15.489Z,4.07
2018-11-03T03:41:44.587Z,4.43
2018-11-03T03:44:12.943Z,4.33
2018-11-03T03:46:41.326Z,4.40
2018-11-03T03:49:09.702Z,4.57
2018-11-03T03:51:38.351Z,3.90
2018-11-03T03:54:07.322Z,3.90
2018-11-03T03:56:35.706Z,3.27
2018-11-03T03:59:04.567Z,4.27
2018-11-03T04:01:33.314Z,3.30
2018-11-03T04:04:01.994Z,3.10
2018-11-03T04:06:30.367Z,4.93
2018-11-03T04:08:58.771Z,4.47
2018-11-03T04:11:27.163Z,4.13
2018-11-03T04:13:55.563Z,2.83
2018-11-03T04:16:26.081Z,4.03
2018-11-03T04:18:56.447Z,3.43
2018-11-03T04:21:29.331Z,3.60
2018-11-03T04:23:59.892Z,2.80
2018-11-03T04:26:29.711Z,4.67
2018-11-03T04:28:58.987Z,2.63
2018-11-03T04:31:28.186Z,4.23
2018-11-03T04:33:57.081Z,3.53
2018-11-03T04:36:25.482Z,3.90
2018-11-03T04:38:53.886Z,3.60
2018-11-03T04:41:22.498Z,3.50
2018-11-03T04:43:51.162Z,3.33
2018-11-03T04:46:19.551Z,3.80
2018-11-03T04:48:48.576Z,3.80
2018-11-03T04:51:16.981Z,3.90
2018-11-03T04:53:45.339Z,3.20
2018-11-03T04:56:13.730Z,3.27
2018-11-03T04:58:42.114Z,3.20
2018-11-03T05:01:10.506Z,4.13
2018-11-03T05:03:38.899Z,3.33
2018-11-03T05:06:07.318Z,3.63
2018-11-03T05:08:35.882Z,2.40
2018-11-03T05:11:04.579Z,3.50
2018-11-03T05:13:33.262Z,3.33
2018-11-03T05:16:01.962Z,3.00
2018-11-03T05:18:30.363Z,3.20
2018-11-03T05:20:59.032Z,3.30
2018-11-03T05:23:27.431Z,3.00
2018-11-03T05:25:55.823Z,2.43
2018-11-03T05:28:24.188Z,3.70
2018-11-03T05:30:52.592Z,4.00
2018-11-03T05:33:20.946Z,4.23
2018-11-03T05:35:50.316Z,3.37
2018-11-03T05:38:18.679Z,3.67
2018-11-03T05:40:47.130Z,3.40
2018-11-03T05:43:15.519Z,4.50
2018-11-03T05:45:43.918Z,3.40
2018-11-03T05:48:12.315Z,3.57
2018-11-03T05:50:40.732Z,2.87
2018-11-03T05:53:09.723Z,2.90
2018-11-03T05:55:38.094Z,2.77
2018-11-03T05:58:06.907Z,3.30
2018-11-03T06:00:35.965Z,4.40
2018-11-03T06:03:04.367Z,3.50
2018-11-03T06:05:32.827Z,3.17
2018-11-03T06:08:01.776Z,2.70
2018-11-03T06:10:30.177Z,2.90
2018-11-03T06:12:58.819Z,3.13
2018-11-03T06:15:27.325Z,3.60
2018-11-03T06:17:55.629Z,2.40
2018-11-03T06:20:24.340Z,4.00
2018-11-03T06:22:53.165Z,3.43
2018-11-03T06:25:21.502Z,3.13
2018-11-03T06:27:50.180Z,5.17
2018-11-03T06:30:18.874Z,3.63
2018-11-03T06:32:47.287Z,3.87
2018-11-03T06:35:15.698Z,3.77
2018-11-03T06:37:44.037Z,2.33
2018-11-03T06:40:12.664Z,2.40
2018-11-03T06:42:41.051Z,4.50
2018-11-03T06:45:10.991Z,3.00
2018-11-03T06:47:39.383Z,3.87
2018-11-03T06:50:08.670Z,2.80
2018-11-03T06:52:37.066Z,2.07
2018-11-03T06:55:06.538Z,4.37
2018-11-03T06:57:35.818Z,4.13
2018-11-03T07:00:06.262Z,3.10
2018-11-03T07:02:34.651Z,3.90
2018-11-03T07:05:03.721Z,3.47
2018-11-03T07:07:32.871Z,3.87
2018-11-03T07:10:01.254Z,3.80
2018-11-03T07:12:30.104Z,3.23
2018-11-03T07:14:59.078Z,3.77
2018-11-03T07:17:27.470Z,4.77
2018-11-03T07:19:56.091Z,3.13
2018-11-03T07:22:24.623Z,4.33
2018-11-03T07:24:53.278Z,3.60
2018-11-03T07:27:22.208Z,3.97
2018-11-03T07:29:50.856Z,3.40
2018-11-03T07:32:19.251Z,3.80
2018-11-03T07:34:48.159Z,4.00
2018-11-03T07:37:16.874Z,3.23
2018-11-03T07:39:45.526Z,4.10
2018-11-03T07:42:14.290Z,4.20
2018-11-03T07:44:43.250Z,4.00
2018-11-03T07:47:11.919Z,3.77
2018-11-03T07:49:40.291Z,4.93
2018-11-03T07:52:08.678Z,4.97
2018-11-03T07:54:37.740Z,3.07
2018-11-03T07:57:06.112Z,3.87
2018-11-03T07:59:34.717Z,4.17
2018-11-03T08:02:03.124Z,4.47
2018-11-03T08:04:31.682Z,4.17
2018-11-03T08:07:00.550Z,4.43
2018-11-03T08:09:29.459Z,3.50
2018-11-03T08:11:58.144Z,3.57
2018-11-03T08:14:26.499Z,3.80
2018-11-03T08:16:55.191Z,5.33
2018-11-03T08:19:23.823Z,4.10
2018-11-03T08:21:52.539Z,3.93
2018-11-03T08:24:20.931Z,6.10
2018-11-03T08:26:49.335Z,4.00
2018-11-03T08:29:17.718Z,4.63
2018-11-03T08:31:46.197Z,4.40
2018-11-03T08:34:15.302Z,4.93
2018-11-03T08:36:43.682Z,3.60
2018-11-03T08:39:12.079Z,4.93
2018-11-03T08:41:40.858Z,3.90
2018-11-03T08:44:09.531Z,4.27
2018-11-03T08:46:37.983Z,4.10
2018-11-03T08:49:07.195Z,4.07
2018-11-03T08:51:35.647Z,3.83
2018-11-03T08:54:04.042Z,4.60
2018-11-03T08:56:32.755Z,3.10
2018-11-03T08:59:01.411Z,2.53
2018-11-03T09:01:29.915Z,3.50
2018-11-03T09:03:58.613Z,3.93
2018-11-03T09:06:27.151Z,3.40
2018-11-03T09:08:55.451Z,5.27
2018-11-03T09:11:23.827Z,4.43
2018-11-03T09:13:53.003Z,3.80
2018-11-03T09:16:21.670Z,4.07
2018-11-03T09:18:50.288Z,3.60
2018-11-03T09:21:18.959Z,3.10
2018-11-03T09:23:47.355Z,4.20
2018-11-03T09:26:15.743Z,4.20
2018-11-03T09:28:44.174Z,3.40
2018-11-03T09:31:13.017Z,2.83
2018-11-03T09:33:41.718Z,3.73
2018-11-03T09:36:11.492Z,3.90
2018-11-03T09:38:41.458Z,4.10
2018-11-03T09:41:10.190Z,3.10
2018-11-03T09:43:38.565Z,4.67
2018-11-03T09:46:08.099Z,4.37
2018-11-03T09:48:36.527Z,3.73
2018-11-03T09:51:05.225Z,4.53
2018-11-03T09:53:34.079Z,3.73
2018-11-03T09:56:03.239Z,3.97
2018-11-03T09:58:34.133Z,3.60
2018-11-03T10:01:03.217Z,4.40
2018-11-03T10:03:32.360Z,3.67
2018-11-03T10:06:01.515Z,4.90
2018-11-03T10:08:30.965Z,4.20
2018-11-03T10:10:59.759Z,4.20
2018-11-03T10:13:28.159Z,3.40
2018-11-03T10:15:57.093Z,5.67
2018-11-03T10:18:25.677Z,4.50
2018-11-03T10:20:54.071Z,3.43
2018-11-03T10:23:22.471Z,3.70
2018-11-03T10:25:50.839Z,4.40
2018-11-03T10:28:19.236Z,4.60
2018-11-03T10:30:47.639Z,3.93
2018-11-03T10:33:16.402Z,4.77
2018-11-03T10:35:44.826Z,4.07
2018-11-03T10:38:13.247Z,4.33
2018-11-03T10:40:41.923Z,3.80
2018-11-03T10:43:10.843Z,3.30
2018-11-03T10:45:39.216Z,4.80
2018-11-03T10:48:07.649Z,4.27
2018-11-03T10:50:36.334Z,4.07
2018-11-03T10:53:06.558Z,3.60
2018-11-03T10:55:35.164Z,3.60
2018-11-03T10:58:04.152Z,3.57
2018-11-03T11:00:37.958Z,4.40
2018-11-03T11:03:12.042Z,4.00
2018-11-03T11:05:44.662Z,4.53
2018-11-03T11:08:18.487Z,4.13
2018-11-03T11:11:01.007Z,4.07
2018-11-03T11:13:31.183Z,3.83
2018-11-03T11:15:59.660Z,4.23
2018-11-03T11:18:27.970Z,4.93
2018-11-03T11:20:56.631Z,3.53
2018-11-03T11:23:25.114Z,4.70
2018-11-03T11:25:53.444Z,3.50
2018-11-03T11:28:21.819Z,3.50
2018-11-03T11:30:50.229Z,3.20
2018-11-03T11:33:18.858Z,4.57
2018-11-03T11:35:47.276Z,3.67
2018-11-03T11:38:15.906Z,3.80
2018-11-03T11:40:44.503Z,3.80
2018-11-03T11:43:14.240Z,4.50
2018-11-03T11:45:42.700Z,4.00
2018-11-03T11:48:11.425Z,3.90
2018-11-03T11:50:40.252Z,4.70
2018-11-03T11:53:08.644Z,4.00
2018-11-03T11:55:37.456Z,4.17
2018-11-03T11:58:06.506Z,3.40
2018-11-03T12:00:35.195Z,3.30
2018-11-03T12:03:03.581Z,3.97
2018-11-03T12:05:32.899Z,3.70
2018-11-03T12:08:01.269Z,4.40
2018-11-03T12:10:30.202Z,4.37
2018-11-03T12:12:59.486Z,4.27
2018-11-03T12:15:28.018Z,4.10
2018-11-03T12:17:56.575Z,4.80
2018-11-03T12:20:24.959Z,5.30
2018-11-03T12:22:53.624Z,3.10
2018-11-03T12:25:22.210Z,4.20
2018-11-03T12:27:50.610Z,4.40
2018-11-03T12:30:19.667Z,4.57
2018-11-03T12:32:48.354Z,3.53
2018-11-03T12:35:18.243Z,3.77
2018-11-03T12:37:46.812Z,4.23
2018-11-03T12:40:16.135Z,4.27
2018-11-03T12:42:44.715Z,5.07
2018-11-03T12:45:14.258Z,4.43
2018-11-03T12:47:43.490Z,3.67
2018-11-03T12:50:14.258Z,3.67
2018-11-03T12:52:42.734Z,4.37
2018-11-03T12:55:12.055Z,3.97
2018-11-03T12:57:41.719Z,5.03
2018-11-03T13:00:12.403Z,4.60
2018-11-03T13:02:42.435Z,5.30
2018-11-03T13:05:11.246Z,4.27
2018-11-03T13:07:40.872Z,3.90
2018-11-03T13:10:10.329Z,3.30
2018-11-03T13:12:39.777Z,4.70
2018-11-03T13:15:09.717Z,4.60
2018-11-03T13:17:38.628Z,4.00
2018-11-03T13:20:09.224Z,3.67
2018-11-03T13:22:38.313Z,4.57
2018-11-03T13:25:07.883Z,4.20
2018-11-03T13:27:37.490Z,3.73
2018-11-03T13:30:07.095Z,4.43
2018-11-03T13:32:35.923Z,5.20
2018-11-03T13:35:06.089Z,4.30
2018-11-03T13:37:34.882Z,4.40
2018-11-03T13:40:03.510Z,4.90
2018-11-03T13:42:32.239Z,4.40
2018-11-03T13:45:01.413Z,4.40
2018-11-03T13:47:29.954Z,4.20
2018-11-03T13:49:58.546Z,4.30
2018-11-03T13:52:27.535Z,5.10
2018-11-03T13:54:56.236Z,4.37
2018-11-03T13:57:25.452Z,4.67
2018-11-03T13:59:53.917Z,5.17
2018-11-03T14:02:23.155Z,4.03
2018-11-03T14:04:51.938Z,3.23
2018-11-03T14:07:21.267Z,4.27
2018-11-03T14:09:49.865Z,4.87
2018-11-03T14:12:19.430Z,4.37
2018-11-03T14:14:48.390Z,4.87
2018-11-03T14:17:17.585Z,4.00
2018-11-03T14:19:46.270Z,5.83
2018-11-03T14:22:14.863Z,5.33
2018-11-03T14:24:43.547Z,5.27
2018-11-03T14:27:12.522Z,5.07
2018-11-03T14:29:43.719Z,5.33
2018-11-03T14:32:12.362Z,5.40
2018-11-03T14:34:41.641Z,4.53
2018-11-03T14:37:10.279Z,4.20
2018-11-03T14:39:40.009Z,5.17
2018-11-03T14:42:08.843Z,4.07
2018-11-03T14:44:37.593Z,4.23
2018-11-03T14:47:06.287Z,3.53
2018-11-03T14:49:34.999Z,4.50
2018-11-03T14:52:03.387Z,4.33
2018-11-03T14:54:31.736Z,5.23
2018-11-03T14:57:00.091Z,4.23
2018-11-03T14:59:28.699Z,3.90
2018-11-03T15:01:57.101Z,4.67
2018-11-03T15:04:25.961Z,4.60
2018-11-03T15:06:54.439Z,5.40
2018-11-03T15:09:23.131Z,3.53
2018-11-03T15:11:51.503Z,4.33
2018-11-03T15:14:20.217Z,6.53
2018-11-03T15:16:48.751Z,5.20
2018-11-03T15:19:17.366Z,4.23
2018-11-03T15:21:45.747Z,4.80
2018-11-03T15:24:14.372Z,4.37
2018-11-03T15:26:43.083Z,5.43
2018-11-03T15:29:11.758Z,4.13
2018-11-03T15:31:40.132Z,5.17
2018-11-03T15:34:08.511Z,4.00
2018-11-03T15:36:37.143Z,5.10
2018-11-03T15:39:06.541Z,4.60
2018-11-03T15:41:35.711Z,7.03
2018-11-03T15:44:04.115Z,4.40
2018-11-03T15:46:32.807Z,5.30
2018-11-03T15:49:01.596Z,6.03
2018-11-03T15:51:30.259Z,5.10
2018-11-03T15:53:58.871Z,4.50
2018-11-03T15:56:27.243Z,4.00
2018-11-03T15:58:55.636Z,4.20
2018-11-03T16:01:24.281Z,4.63
2018-11-03T16:03:52.899Z,4.50
2018-11-03T16:06:21.300Z,5.50
2018-11-03T16:08:50.027Z,5.20
2018-11-03T16:11:18.398Z,4.83
2018-11-03T16:13:47.246Z,4.30
2018-11-03T16:16:15.935Z,5.27
2018-11-03T16:18:44.386Z,3.93
2018-11-03T16:21:12.979Z,6.00
2018-11-03T16:23:41.378Z,5.63
2018-11-03T16:26:09.799Z,6.37
2018-11-03T16:28:38.641Z,6.43
2018-11-03T16:31:06.920Z,5.50
2018-11-03T16:33:35.607Z,5.90
2018-11-03T16:36:04.302Z,4.40
2018-11-03T16:38:32.794Z,6.20
2018-11-03T16:41:01.079Z,5.37
2018-11-03T16:43:29.766Z,6.50
2018-11-03T16:45:58.414Z,4.97
2018-11-03T16:48:26.827Z,5.03
2018-11-03T16:50:55.940Z,5.73
2018-11-03T16:53:25.062Z,5.57
2018-11-03T16:55:53.702Z,5.37
2018-11-03T16:58:22.342Z,5.57
2018-11-03T17:00:50.798Z,5.70
2018-11-03T17:03:19.165Z,5.57
2018-11-03T17:05:49.115Z,6.40
2018-11-03T17:08:17.542Z,5.03
2018-11-03T17:10:46.054Z,6.20
2018-11-03T17:13:14.771Z,5.20
2018-11-03T17:15:43.546Z,5.07
2018-11-03T17:18:12.898Z,5.90
2018-11-03T17:20:42.139Z,5.30
2018-11-03T17:23:10.892Z,5.20
2018-11-03T17:25:39.715Z,4.47
2018-11-03T17:28:08.143Z,5.00
2018-11-03T17:30:36.747Z,5.10
2018-11-03T17:33:05.427Z,4.50
2018-11-03T17:35:33.789Z,5.90
2018-11-03T17:38:02.471Z,7.10
2018-11-03T17:40:31.847Z,6.30
2018-11-03T17:43:00.212Z,5.67
2018-11-03T17:45:29.303Z,6.90
2018-11-03T17:47:59.208Z,4.27
2018-11-03T17:50:28.828Z,5.20
2018-11-03T17:52:57.547Z,6.40
2018-11-03T17:55:25.996Z,5.63
2018-11-03T17:57:55.086Z,4.93
2018-11-03T18:00:25.694Z,5.57
2018-11-03T18:02:54.810Z,4.20
2018-11-03T18:05:23.502Z,6.57
2018-11-03T18:07:55.057Z,4.83
2018-11-03T18:10:23.739Z,4.80
2018-11-03T18:12:52.678Z,6.40
2018-11-03T18:15:23.678Z,4.70
2018-11-03T18:17:52.288Z,6.00
2018-11-03T18:20:21.149Z,4.60
2018-11-03T18:22:50.048Z,5.03
2018-11-03T18:25:18.534Z,6.73
2018-11-03T18:27:46.922Z,6.23
2018-11-03T18:30:15.924Z,6.00
2018-11-03T18:32:44.789Z,5.10
2018-11-03T18:35:13.680Z,5.30
2018-11-03T18:37:43.018Z,5.30
2018-11-03T18:40:11.851Z,5.50
2018-11-03T18:42:41.685Z,4.73
2018-11-03T18:45:10.264Z,3.70
2018-11-03T18:47:38.643Z,5.90
2018-11-03T18:50:10.161Z,5.33
2018-11-03T18:52:38.806Z,7.17
2018-11-03T18:55:08.220Z,4.87
2018-11-03T18:57:36.890Z,6.03
2018-11-03T19:00:06.019Z,5.03
2018-11-03T19:02:35.033Z,5.23
2018-11-03T19:05:04.474Z,7.27
2018-11-03T19:07:34.488Z,5.93
2018-11-03T19:10:04.120Z,8.93
2018-11-03T19:12:33.593Z,6.07
2018-11-03T19:15:02.695Z,6.40
2018-11-03T19:17:31.143Z,7.30
2018-11-03T19:19:59.731Z,5.70
2018-11-03T19:22:28.163Z,3.83
2018-11-03T19:24:57.190Z,6.00
2018-11-03T19:27:25.851Z,7.27
2018-11-03T19:29:54.775Z,6.13
2018-11-03T19:32:23.354Z,4.90
2018-11-03T19:34:51.841Z,4.80
2018-11-03T19:37:20.875Z,5.80
2018-11-03T19:39:50.311Z,6.03
2018-11-03T19:42:18.982Z,5.00
2018-11-03T19:44:47.493Z,7.10
2018-11-03T19:47:17.197Z,6.67
2018-11-03T19:49:46.172Z,6.20
2018-11-03T19:52:15.627Z,7.53
2018-11-03T19:54:44.694Z,6.20
2018-11-03T19:57:14.430Z,6.20
2018-11-03T19:59:43.131Z,6.27
2018-11-03T20:02:11.985Z,4.73
2018-11-03T20:04:40.835Z,5.87
2018-11-03T20:07:09.969Z,6.87
2018-11-03T20:09:38.764Z,6.80
2018-11-03T20:12:07.915Z,5.50
2018-11-03T20:14:36.354Z,6.17
2018-11-03T20:17:05.226Z,4.87
2018-11-03T20:19:33.810Z,5.93
2018-11-03T20:22:09.116Z,5.93
2018-11-03T20:24:37.673Z,6.67
2018-11-03T20:27:07.269Z,7.17
2018-11-03T20:29:35.720Z,5.37
2018-11-03T20:32:04.484Z,5.90
2018-11-03T20:34:33.779Z,6.97
2018-11-03T20:37:02.907Z,5.50
2018-11-03T20:39:31.347Z,6.03
2018-11-03T20:41:59.803Z,12.23
2018-11-03T20:44:28.293Z,6.00
2018-11-03T20:46:56.707Z,7.10
2018-11-03T20:49:25.323Z,7.47
2018-11-03T20:51:54.367Z,6.03
2018-11-03T20:54:22.927Z,7.43
2018-11-03T20:56:51.860Z,6.67
2018-11-03T20:59:20.941Z,7.07
2018-11-03T21:01:50.256Z,5.13
2018-11-03T21:04:19.268Z,6.90
2018-11-03T21:06:47.642Z,5.83
2018-11-03T21:09:16.799Z,8.10
2018-11-03T21:11:45.191Z,6.20
2018-11-03T21:14:13.855Z,5.27
2018-11-03T21:16:42.496Z,6.13
2018-11-03T21:19:11.207Z,5.30
2018-11-03T21:21:39.703Z,5.97
2018-11-03T21:24:08.237Z,7.17
2018-11-03T21:26:36.558Z,5.67
2018-11-03T21:29:05.199Z,6.43
2018-11-03T21:31:33.583Z,6.20
2018-11-03T21:34:02.228Z,6.80
2018-11-03T21:36:30.870Z,5.97
2018-11-03T21:38:59.477Z,6.23
2018-11-03T21:41:27.855Z,6.00
2018-11-03T21:43:56.535Z,6.07
2018-11-03T21:46:24.954Z,7.73
2018-11-03T21:48:53.348Z,6.90
2018-11-03T21:51:22.054Z,5.80
2018-11-03T21:53:51.023Z,6.40
2018-11-03T21:56:19.923Z,7.20
2018-11-03T21:58:48.325Z,7.07
2018-11-03T22:01:16.987Z,7.77
2018-11-03T22:03:45.672Z,9.03
2018-11-03T22:06:14.109Z,5.87
2018-11-03T22:08:43.587Z,7.57
2018-11-03T22:11:11.994Z,6.80
2018-11-03T22:13:40.407Z,5.67
2018-11-03T22:16:09.310Z,7.80
2018-11-03T22:18:38.142Z,7.10
2018-11-03T22:21:08.539Z,6.20
2018-11-03T22:23:37.507Z,6.07
2018-11-03T22:26:06.359Z,5.73
2018-11-03T22:28:35.203Z,9.33
2018-11-03T22:31:03.586Z,7.97
2018-11-03T22:33:31.954Z,10.90
2018-11-03T22:36:00.590Z,7.17
2018-11-03T22:38:29.075Z,6.17
2018-11-03T22:40:57.499Z,8.17
2018-11-03T22:43:26.799Z,7.40
2018-11-03T22:45:55.175Z,7.43
2018-11-03T22:48:23.582Z,6.93
2018-11-03T22:50:52.283Z,5.90
2018-11-03T22:53:21.115Z,5.57
2018-11-03T22:55:49.695Z,5.37
2018-11-03T22:58:18.098Z,7.20
2018-11-03T23:00:51.846Z,7.40
2018-11-03T23:03:20.475Z,8.60
2018-11-03T23:05:49.933Z,6.83
2018-11-03T23:08:18.414Z,5.80
2018-11-03T23:10:47.347Z,6.50
2018-11-03T23:13:15.973Z,6.20
2018-11-03T23:15:45.197Z,5.97
2018-11-03T23:18:14.011Z,7.40
2018-11-03T23:20:42.512Z,6.40
2018-11-03T23:23:10.951Z,7.27
2018-11-03T23:25:39.382Z,5.97
2018-11-03T23:28:07.971Z,7.20
2018-11-03T23:30:36.379Z,6.00
2018-11-03T23:33:05.722Z,6.97
2018-11-03T23:35:34.163Z,5.63
2018-11-03T23:38:03.419Z,6.50
2018-11-03T23:40:32.139Z,7.37
2018-11-03T23:43:01.299Z,6.70
2018-11-03T23:45:30.135Z,6.93
2018-11-03T23:47:58.775Z,6.77
2018-11-03T23:50:28.041Z,7.00
2018-11-03T23:52:57.196Z,7.43
2018-11-03T23:55:25.811Z,7.00
2018-11-03T23:57:54.163Z,6.33
